Bella Desgagnes — CZJG — position and weather

sailwx.info

Track history (hours):
 
Tides and Currents Weather Stations Pressure Air Temp Water Temp Dewpoint Dewpoint Depression Visibility Wind Speed Wind Dir Waves Ship Positions

Bella Desgagnes

Last reported at 2018-May-25 17:00 UTC. Time now 2018-May-25 18:20 UTC.
Position N 51°24' W 057°18'.

Length 97 m; draft 4.5 m.

Type: Passenger vessel. MMSI: 316023823.

Wind from 350 at 5 knots

Barometer 1008.3 mb
Air temperature 3.0 ° C
Dewpoint -4.3 ° C
Water temperature 1.4 ° C

Date/timePositionNaut miles runAvg speedWind from/ knotsBaromVisibWave heightAir tempDewpointWater temp
2018-May-25 17:00N 51°24' W 057°18'4 3.7 350 / 51008.3 3.0-4.3 1.4
2018-May-25 16:00N 51°24' W 057°12'0 0.0 090 / 31009.0 4.5-3.1
2018-May-25 15:00N 51°24' W 057°12'0 0.0 110 / 31009.6 4.5-0.8 0.8
2018-May-25 14:00N 51°24' W 057°12'4 3.7 130 / 51010.0 2.0-1.1 0.9
2018-May-25 13:00N 51°24' W 057°06'7 7.5 170 / 81010.1 1.9-1.3 0.8
2018-May-25 12:00N 51°24' W 057°18'10 9.6 200 / 101010.4 2.5-1.6 2.0
2018-May-25 11:00N 51°18' W 057°30'8 7.5 210 / 101010.5 2.1-1.5 2.0
2018-May-25 10:00N 51°18' W 057°42'10 9.6 200 / 101010.5 1.8-1.6 2.4
2018-May-25 09:00N 51°12' W 057°54'1111.3 220 / 111010.5 1.8-2.1 2.5
2018-May-25 08:00N 51°12' W 058°12'8 7.5 220 / 121010.7 1.8-1.8 2.4
2018-May-25 07:00N 51°12' W 058°24'8 7.5 230 / 161010.9 1.4-2.4 3.1
2018-May-25 06:00N 51°12' W 058°36'0 0.0 220 / 91011.5 1.2-1.3 3.7
2018-May-25 05:00N 51°12' W 058°36'0 0.0 220 / 121012.1 1.4-1.5 3.1
2018-May-25 04:00N 51°12' W 058°36'8 7.5 230 / 81012.6 1.1-1.2 3.5
2018-May-25 03:00N 51°12' W 058°24'1414.2 230 / 191013.3 1.1-1.5 2.3
2018-May-25 02:00N 51°00' W 058°36'1312.8 220 / 171013.8 1.6-1.2 2.3
2018-May-25 01:00N 50°54' W 058°54'6 6.0 210 / 141014.2 1.0-2.0 2.6
2018-May-25 00:00N 50°48' W 058°54'0 0.0 190 / 101013.8 0.8-1.9 2.6
2018-May-24 23:00N 50°48' W 058°54'10 9.7 210 / 151014.1 1.4-1.7 2.1
2018-May-24 22:00N 50°42' W 059°06'4 3.8 210 / 181013.8 2.0-1.4 2.7
2018-May-24 21:00N 50°42' W 059°12'0 0.0 180 / 141013.9 2.1-1.9 3.8
2018-May-24 20:00N 50°42' W 059°12'0 0.0 180 / 151014.2 1.9-2.9 3.5
2018-May-24 19:00N 50°42' W 059°12'6 6.0 180 / 131014.4 1.7-4.4 3.9
2018-May-24 18:00N 50°36' W 059°12'1312.9 150 / 131014.7 1.7-3.9 2.6
2018-May-24 17:00N 50°30' W 059°30'0 0.0 180 / 81015.2 2.6-3.4
2018-May-24 16:00N 50°30' W 059°30'0 0.0 020 / 71015.3 4.6-8.4 2.0
2018-May-24 15:00N 50°30' W 059°30'0 0.0 360 / 91015.5 3.8-8.5 2.5
2018-May-24 14:00N 50°30' W 059°30'6 6.0 350 / 141015.6 2.7-8.1 3.5
2018-May-24 13:00N 50°24' W 059°30'7 7.1 080 / 71016.1 0.3-2.8 2.1
2018-May-24 12:00N 50°18' W 059°36'10 9.7 030 / 141016.2 0.4-3.4 2.2
2018-May-24 11:00N 50°12' W 059°48'10 9.8 040 / 181015.8 0.5-3.6 2.1
2018-May-24 10:00N 50°06' W 060°00'1211.5 040 / 191015.0 0.3-2.7 1.8
2018-May-24 09:00N 50°06' W 060°18'8 7.7 060 / 191014.7 0.1-2.4 2.4
2018-May-24 08:00N 50°06' W 060°30'10 9.8 050 / 181014.2 0.1-1.8 2.4
2018-May-24 07:00N 50°12' W 060°42'0 0.0 010 / 71014.9 -0.1-3.3 1.7
2018-May-24 06:00N 50°12' W 060°42'0 0.0 360 / 81014.6 -0.3-3.6 1.8
2018-May-24 05:00N 50°12' W 060°42'0 0.0 010 / 91014.2 0.5-3.2 2.3
2018-May-24 04:00N 50°12' W 060°42'1716.5 010 / 121013.7 2.4-1.2 2.9
2018-May-24 03:00N 50°06' W 061°06'10 9.8 350 / 101014.4 2.4-1.9 3.3
2018-May-24 02:00N 50°12' W 061°18'0 0.0 350 / 31014.6 0.7-2.5 3.6
2018-May-24 01:00N 50°12' W 061°18'0 0.0 340 / 31014.4 2.2-1.5 3.7
2018-May-24 00:00N 50°12' W 061°18'10 9.8 240 / 31014.1 3.0-1.4 3.2
2018-May-23 23:00N 50°06' W 061°30'1515.4 290 / 51013.5 4.1-0.8 3.3
2018-May-23 22:00N 50°06' W 061°54'7 7.1 270 / 121013.0 4.3-0.0 3.4
2018-May-23 21:00N 50°12' W 061°48'4 3.8 240 / 91013.3 5.0 0.3 3.0
2018-May-23 20:00N 50°12' W 061°54'1211.5 210 / 101013.4 4.7 0.2 3.3
2018-May-23 19:00N 50°12' W 062°12'1211.5 260 / 81013.7 4.0-1.3 2.5
2018-May-23 18:00N 50°12' W 062°30'1716.5 250 / 51014.5 3.5-2.2 2.4
2018-May-23 17:00N 50°06' W 062°54'10 9.8 170 / 81014.7 3.0-2.7 2.5
2018-May-23 16:00N 50°12' W 063°06'1211.5 150 / 71015.2 2.4-3.6 1.9
2018-May-23 15:00N 50°12' W 063°24'8 7.7 150 / 81015.6 2.0-2.6 2.0
2018-May-23 14:00N 50°12' W 063°36'0 0.0 050 / 111015.7 2.6-5.0 2.1
2018-May-23 13:00N 50°12' W 063°36'0 0.0 050 / 81015.9 3.1-4.8 1.9
2018-May-23 12:00N 50°12' W 063°36'4 3.8 050 / 111015.6 2.1-5.0 1.9
2018-May-23 11:00N 50°12' W 063°42'10 9.8 040 / 151014.6 0.6-4.9 2.0
2018-May-23 10:00N 50°06' W 063°54'8 7.7 030 / 141013.9 0.6-4.3 2.4
2018-May-23 09:00N 50°06' W 064°06'1414.3 020 / 191013.6 1.0-3.6 1.9
2018-May-23 08:00N 49°54' W 064°18'8 7.7 020 / 231012.0 1.3-3.0 2.0
2018-May-23 07:00N 49°54' W 064°30'6 6.0 010 / 211012.4 2.1-0.1 2.3
2018-May-23 06:00N 49°48' W 064°30'4 3.9 010 / 161011.7 1.7 0.8 2.3
2018-May-23 05:00N 49°48' W 064°24'0 0.0 350 / 111011.4 2.3 1.7
2018-May-23 04:00N 49°48' W 064°24'0 0.0 340 / 131011.3 2.6 2.3 3.7
2018-May-23 03:00N 49°48' W 064°24'0 0.0 290 / 81011.2 3.2 2.6 3.9
2018-May-23 02:00N 49°48' W 064°24'4 3.9 270 / 51010.7 3.1 2.4 3.7
2018-May-23 01:00N 49°48' W 064°30'8 7.7 230 / 111010.7 3.1 2.6 2.6
2018-May-23 00:00N 49°48' W 064°42'10 9.8 250 / 21011.0 2.5 2.2 3.1
2018-May-22 23:00N 49°54' W 064°54'1211.6 080 / 121009.7 2.1 1.6 3.0
2018-May-22 22:00N 49°54' W 065°12'1211.6 060 / 181010.0 1.7 1.4 2.9
2018-May-22 21:00N 49°54' W 065°30'2019.5 040 / 171010.9 1.6 0.7 2.8
2018-May-22 20:00N 50°06' W 065°54'8 7.7 070 / 151010.9 1.4 0.1 3.1
2018-May-22 19:00N 50°06' W 066°06'10 9.8 080 / 91012.3 1.3-0.6 2.6
2018-May-22 18:00N 50°12' W 066°18'4 3.8 120 / 101013.9 1.4-1.2 2.6
2018-May-22 17:00N 50°12' W 066°24'0 0.0 100 / 71014.8 2.9-1.0
2018-May-22 16:00N 50°12' W 066°24'0 0.0 110 / 61016.0 4.4-3.9 1.7
2018-May-22 15:00N 50°12' W 066°24'0 0.0 170 / 41017.6 3.6-2.7 1.7
2018-May-22 14:00N 50°12' W 066°24'0 0.0 190 / 61018.1 2.5-1.3 2.4
2018-May-22 13:00N 50°12' W 066°24'2019.6 170 / 31018.7 2.1-2.1 2.4
2018-May-22 12:00N 49°54' W 066°36'7 7.1 180 / 11019.5 2.8-1.6 3.9
2018-May-22 11:00N 49°48' W 066°42'10 9.8 210 / 31020.4 2.8-0.6 3.9
2018-May-22 10:00N 49°42' W 066°54'1312.6 220 / 51020.4 3.3-0.4 3.8
2018-May-22 09:00N 49°30' W 067°00'10 9.8 240 / 61020.4 1.3-1.9 2.7
2018-May-22 08:00N 49°24' W 067°12'1312.6 280 / 51020.0 1.8-3.0 3.2
2018-May-22 07:00N 49°12' W 067°18'10 9.9 100 / 111019.4 4.3-1.0 4.4
2018-May-22 06:00N 49°06' W 067°30'1716.8 090 / 151019.1 5.4-1.2 6.4
2018-May-22 05:00N 48°54' W 067°48'1313.3 030 / 91018.9 8.3-5.9 6.6
2018-May-22 04:00N 48°48' W 068°06'1716.9 050 / 81019.1 8.4-2.7 6.1
2018-May-22 03:00N 48°36' W 068°24'7 7.2 030 / 81019.3 8.6-2.7 3.7
2018-May-22 02:00N 48°30' W 068°30'0 0.0 350 / 151019.2 9.3-3.5
2018-May-22 01:00N 48°30' W 068°30'0 0.0 350 / 81018.6 10.4-3.9
2018-May-22 00:00N 48°30' W 068°30'0 0.0 010 / 11017.8 10.5-2.7
2018-May-21 23:00N 48°30' W 068°30'0 0.0 290 / 31017.1 11.2-3.9
2018-May-21 22:00N 48°30' W 068°30'0 0.0 360 / 51016.5 10.4-2.7
2018-May-21 21:00N 48°30' W 068°30'0 0.0 010 / 81016.4 9.5-1.3
2018-May-21 20:00N 48°30' W 068°30'0 0.0 300 / 61016.0 9.2-1.3
2018-May-21 19:00N 48°30' W 068°30'0 0.0 300 / 41016.0 9.9-2.8
2018-May-21 18:00N 48°30' W 068°30'0 0.0 280 / 91015.4 9.4-3.0 4.6
2018-May-21 17:00N 48°30' W 068°30'0 0.0 290 / 181014.8 8.6-3.9 6.1
2018-May-21 16:00N 48°30' W 068°30'6 6.0 290 / 211013.6 8.7-3.9 5.4
2018-May-21 15:00N 48°36' W 068°30'1312.6 290 / 261011.3 8.7-3.3 3.4
2018-May-21 14:00N 48°48' W 068°24'1313.3 310 / 281010.9 9.5-1.8 4.3
2018-May-21 13:00N 48°54' W 068°06'1313.3 250 / 241010.5 6.9 2.1 5.8
2018-May-21 12:00N 49°00' W 067°48'10 9.9 260 / 241009.9 7.9 2.1 6.0
2018-May-21 11:00N 49°06' W 067°36'1716.8 260 / 251009.2 7.9 2.8 5.8
2018-May-21 10:00N 49°18' W 067°18'1414.3 270 / 191008.4 6.0 2.5 3.5
2018-May-21 09:00N 49°30' W 067°06'10 9.8 240 / 171008.0 8.5 0.3 3.8
2018-May-21 08:00N 49°36' W 066°54'1312.6 240 / 131007.4 7.3 0.5 3.6
2018-May-21 07:00N 49°48' W 066°48'10 9.8 230 / 221006.8 6.9 0.6 3.6
2018-May-21 06:00N 49°54' W 066°36'2019.6 220 / 181007.2 7.4 0.6 3.9
2018-May-21 05:00N 50°12' W 066°24'0 0.0 320 / 41008.0 6.6-1.2 2.4
2018-May-21 04:00N 50°12' W 066°24'10 9.8 260 / 101008.0 8.0-3.1 2.3
2018-May-21 03:00N 50°06' W 066°12'1515.4 280 / 121008.0 8.8-3.5 2.6
2018-May-21 02:00N 50°06' W 065°48'1716.7 280 / 191007.8 7.8-0.9 3.3
2018-May-21 01:00N 49°54' W 065°30'1515.5 300 / 231006.7 8.5-1.5 2.7
2018-May-21 00:00N 49°54' W 065°06'8 7.7 280 / 211005.7 6.1 0.1 2.6
2018-May-20 23:00N 49°54' W 064°54'1313.1 260 / 221004.8 5.5 1.2 2.7
2018-May-20 22:00N 49°48' W 064°36'8 7.7 270 / 251003.6 6.1 1.6 2.4
2018-May-20 21:00N 49°48' W 064°24'0 0.0 280 / 301002.9 5.9 1.9 2.4
2018-May-20 20:00N 49°48' W 064°24'0 0.0 290 / 271001.7 6.8 3.6 3.6
2018-May-20 19:00N 49°48' W 064°24'4 3.9 290 / 261000.8 4.2 3.7 4.2
2018-May-20 18:00N 49°48' W 064°30'7 7.1 270 / 251001.4 3.2 3.0 2.1
2018-May-20 17:00N 49°54' W 064°36'8 7.7 280 / 261000.1 2.7 2.6 2.5
2018-May-20 16:00N 49°54' W 064°24'1313.0 260 / 16999.9 2.5 2.4 2.3
2018-May-20 15:00N 50°00' W 064°06'10 9.8 270 / 10999.7 2.7 2.4 2.1
2018-May-20 14:00N 50°06' W 063°54'10 9.8 340 / 31000.0 3.2 2.9 1.7
2018-May-20 13:00N 50°12' W 063°42'4 3.8 110 / 41000.5 3.1 2.8 1.6
2018-May-20 12:00N 50°12' W 063°36'0 0.0 060 / 51001.9 3.7 3.3 1.8
2018-May-20 11:00N 50°12' W 063°36'4 3.8 050 / 61003.8 3.5 2.9 2.0
2018-May-20 10:00N 50°12' W 063°30'8 7.7 090 / 71005.3 3.1 1.6 1.5
2018-May-20 09:00N 50°12' W 063°18'10 9.8 100 / 161006.1 3.7 0.3 1.3
2018-May-20 08:00N 50°06' W 063°06'1211.5 100 / 161008.5 2.9 0.7 1.6
2018-May-20 07:00N 50°06' W 062°48'1313.0 110 / 171011.4 2.6 0.2 1.6
2018-May-20 06:00N 50°12' W 062°30'1211.5 110 / 161013.6 2.8-0.9 1.9
2018-May-20 05:00N 50°12' W 062°12'1211.5 110 / 151015.9 3.4-2.2 1.6
2018-May-20 04:00N 50°12' W 061°54'4 3.8 080 / 81017.8 4.8 0.5 3.8
2018-May-20 03:00N 50°12' W 061°48'1212.0 120 / 31019.9 5.4 1.0 4.3
2018-May-20 02:00N 50°00' W 061°48'1716.5 200 / 121020.3 5.0-2.6 1.3
2018-May-20 01:00N 50°06' W 061°24'7 7.1 210 / 161020.9 3.1-0.5 1.0
2018-May-20 00:00N 50°12' W 061°18'0 0.0 210 / 101021.6 4.3-0.9 1.2
2018-May-19 23:00N 50°12' W 061°18'1716.5 260 / 101021.3 6.3-2.0 1.5
2018-May-19 22:00N 50°06' W 060°54'10 9.8 260 / 171021.8 4.0-1.4 2.2
2018-May-19 21:00N 50°12' W 060°42'0 0.0 260 / 261021.5 5.3-1.5 3.5
2018-May-19 20:00N 50°12' W 060°42'0 0.0 270 / 261022.1 6.0-2.2 2.9
2018-May-19 19:00N 50°12' W 060°42'10 9.8 250 / 211022.6 4.9-2.5 1.4
2018-May-19 18:00N 50°06' W 060°30'8 7.7 260 / 251023.0 4.1-2.5 1.7
2018-May-19 17:00N 50°06' W 060°18'1211.5 250 / 231022.9 3.0-1.4 1.0
2018-May-19 16:00N 50°06' W 060°00'10 9.8 250 / 251023.5 2.9-1.7 1.2
2018-May-19 15:00N 50°12' W 059°48'10 9.7 250 / 231023.7 2.8-2.3 0.7
2018-May-19 14:00N 50°18' W 059°36'7 7.1 250 / 221024.1 2.8-2.8 1.1
2018-May-19 13:00N 50°24' W 059°30'6 6.0 270 / 141024.1 3.6-4.3 0.4
2018-May-19 12:00N 50°30' W 059°30'0 0.0 320 / 91024.3 4.5-6.8-0.2
2018-May-19 11:00N 50°30' W 059°30'1312.9 310 / 141024.1 3.2-6.0 0.4
2018-May-19 10:00N 50°36' W 059°12'6 6.0 260 / 171023.3 2.6-4.3 0.9
2018-May-19 09:00N 50°42' W 059°12'4 3.8 260 / 111023.3 1.1-5.0 0.8
2018-May-19 08:00N 50°42' W 059°06'10 9.7 260 / 181022.4 1.2-4.2 0.8
2018-May-19 07:00N 50°48' W 058°54'0 0.0 270 / 201021.9 2.5-5.7 0.9
2018-May-19 06:00N 50°48' W 058°54'7 7.1 270 / 51021.7 1.9-5.1 0.7
2018-May-19 05:00N 50°54' W 058°48'1312.8 270 / 201020.7 2.7-4.5 1.2
2018-May-19 04:00N 51°00' W 058°30'1312.6 260 / 201019.8 2.1-3.9 0.8
2018-May-19 03:00N 51°12' W 058°24'8 7.5 270 / 91019.6 2.3-4.8 0.8
2018-May-19 02:00N 51°12' W 058°36'4 3.8 250 / 101019.5 3.9-6.3 0.4
2018-May-19 01:00N 51°12' W 058°30'1111.3 270 / 131018.8 4.1-6.0 0.6
2018-May-19 00:00N 51°12' W 058°12'1616.2 250 / 101017.9 3.4-2.9 1.2
2018-May-18 23:00N 51°18' W 057°48'1515.0 260 / 181016.6 3.7-3.7 1.6
2018-May-18 22:00N 51°18' W 057°24'1312.7 220 / 221015.7 2.0-1.3 1.9
2018-May-18 21:00N 51°24' W 057°06'0 0.0 230 / 211016.2 2.4-1.6
2018-May-18 20:00N 51°24' W 057°06'0 0.0 230 / 181016.4 2.5-1.8 2.1
2018-May-18 19:00N 51°24' W 057°06'0 0.0 240 / 171016.5 3.3-4.0 2.2
2018-May-18 18:00N 51°24' W 057°06'7 7.5 250 / 231016.8 2.4-6.0 1.9
2018-May-18 17:00N 51°24' W 057°18'10 9.6 230 / 251016.9 1.4-4.8 1.9
2018-May-18 16:00N 51°18' W 057°30'8 7.5 220 / 271017.2 0.4-6.7 1.7
2018-May-18 15:00N 51°18' W 057°42'10 9.6 230 / 231017.8 0.2-7.3 1.4
2018-May-18 14:00N 51°12' W 057°54'8 7.5 250 / 191018.6 0.7-9.6 1.3
2018-May-18 13:00N 51°12' W 058°06'1111.3 250 / 161019.4 -0.1-10.7 0.6
2018-May-18 12:00N 51°12' W 058°24'8 7.5 270 / 151020.0 -0.3-11.0 0.2
2018-May-18 11:00N 51°12' W 058°36'0 0.0 280 / 111020.1 -1.1-11.5 0.9
2018-May-18 10:00N 51°12' W 058°36'8 7.5 290 / 111019.6 -2.5-11.0 1.1
2018-May-18 09:00N 51°12' W 058°24'2019.5 300 / 121019.1 -2.7-9.9 0.2
2018-May-18 08:00N 50°54' W 058°36'1111.4 340 / 101019.1 -2.0-9.7 0.9
2018-May-18 07:00N 50°54' W 058°54'6 6.0 310 / 101019.2 -2.7-9.6 0.4
2018-May-18 06:00N 50°48' W 058°54'0 0.0 310 / 41018.9 -1.6-9.7 0.6
2018-May-18 05:00N 50°48' W 058°54'7 7.1 280 / 111017.9 -0.9-9.4 0.8
2018-May-18 04:00N 50°42' W 059°00'8 7.6 290 / 71017.7 -0.3-6.1 0.7
2018-May-18 03:00N 50°42' W 059°12'0 0.0 270 / 51017.3 -0.2-9.9 0.3
2018-May-18 02:00N 50°42' W 059°12'6 6.0 300 / 61017.2 -0.2-8.6 0.4
2018-May-18 01:00N 50°36' W 059°12'10 9.7 320 / 101016.4 1.3-7.7 0.2
2018-May-18 00:00N 50°30' W 059°24'4 3.8 340 / 91016.0 2.1-7.8 1.0
2018-May-17 23:00N 50°30' W 059°30'0 0.0 350 / 111015.1 4.1-8.2 0.7
2018-May-17 22:00N 50°30' W 059°30'4 3.8 340 / 141014.1 5.0-8.5 0.6
2018-May-17 21:00N 50°30' W 059°24'1414.2 320 / 211012.6 4.2-6.5 0.7
2018-May-17 20:00N 50°18' W 059°36'7 7.1 320 / 171011.9 4.5-4.1 0.8
2018-May-17 19:00N 50°12' W 059°42'10 9.8 310 / 131011.6 3.5-2.4 0.7
2018-May-17 18:00N 50°06' W 059°54'1211.5 310 / 151011.1 3.1-1.7 1.0
2018-May-17 17:00N 50°06' W 060°12'8 7.7 320 / 151010.4 2.9-1.8 1.0
2018-May-17 16:00N 50°06' W 060°24'1313.0 330 / 181009.6 2.5-2.0 1.3
2018-May-17 15:00N 50°12' W 060°42'0 0.0 330 / 191008.7 2.6-0.9 1.4
2018-May-17 14:00N 50°12' W 060°42'0 0.0 340 / 171007.2 1.8 0.4
2018-May-17 13:00N 50°12' W 060°42'0 0.0 320 / 91006.6 1.5 1.1 1.5
2018-May-17 12:00N 50°12' W 060°42'0 0.0 240 / 171007.1 1.7 1.3 1.9
2018-May-17 11:00N 50°12' W 060°42'7 7.1 200 / 131008.0 1.6 1.1 2.3
2018-May-17 10:00N 50°06' W 060°48'1515.4 170 / 201008.1 1.4 0.9 1.0
2018-May-17 09:00N 50°06' W 061°12'7 7.1 170 / 181009.4 0.4-0.0 1.0
2018-May-17 08:00N 50°12' W 061°18'0 0.0 160 / 71012.0 1.3-1.3 1.1
2018-May-17 07:00N 50°12' W 061°18'10 9.8 150 / 121013.0 1.0-1.1 1.2
2018-May-17 06:00N 50°06' W 061°30'1211.5 170 / 231013.6 0.9-0.9 0.8
2018-May-17 05:00N 50°06' W 061°48'6 6.0 180 / 211014.9 0.5-1.3 1.4
2018-May-17 04:00N 50°12' W 061°48'0 0.0 180 / 131016.5 0.9-2.3 3.0
2018-May-17 03:00N 50°12' W 061°48'1211.5 200 / 171017.4 1.3-2.2 2.5
2018-May-17 02:00N 50°12' W 062°06'1211.5 200 / 201017.9 1.0-2.9 0.7
2018-May-17 01:00N 50°12' W 062°24'1716.5 200 / 161018.5 1.4-3.5 1.5
2018-May-17 00:00N 50°06' W 062°48'1211.5 230 / 171019.1 1.6-3.5 1.5
2018-May-16 23:00N 50°06' W 063°06'10 9.8 230 / 171019.3 1.4-4.6 1.1
2018-May-16 22:00N 50°12' W 063°18'1211.5 240 / 121019.3 0.4-5.7 1.1
2018-May-16 21:00N 50°12' W 063°36'0 0.0 270 / 161019.2 0.1-7.8 1.5
2018-May-16 20:00N 50°12' W 063°36'0 0.0 280 / 151019.7 -0.2-8.9
2018-May-16 19:00N 50°12' W 063°36'0 0.0 240 / 171019.7 -0.2-9.1
2018-May-16 18:00N 50°12' W 063°36'0 0.0 250 / 211020.5 -0.9-9.9
2018-May-16 17:00N 50°12' W 063°36'0 0.0 240 / 231020.2 -1.4-10.8
2018-May-16 16:00N 50°12' W 063°36'0 0.0 250 / 221020.5 -1.7-11.9
2018-May-16 15:00N 50°12' W 063°36'0 0.0 240 / 191020.6 -2.0-13.3
2018-May-16 14:00N 50°12' W 063°36'0 0.0 240 / 121020.3 -1.7-15.5 1.1
2018-May-16 13:00N 50°12' W 063°36'0 0.0 270 / 121020.6 -2.4-15.2 1.1
2018-May-16 12:00N 50°12' W 063°36'4 3.8 310 / 141020.7 -2.6-15.3 1.3
2018-May-16 11:00N 50°12' W 063°42'10 9.8 300 / 161020.7 -3.4-15.8 0.9
2018-May-16 10:00N 50°06' W 063°54'1313.0 310 / 201020.1 -3.2-15.3 1.1
2018-May-16 09:00N 50°00' W 064°12'17 8.3 310 / 231019.0 -3.0-14.6 1.8
2018-May-16 07:00N 49°54' W 064°36'7 7.1 330 / 291016.6 -1.9-14.4 1.8
2018-May-16 06:00N 49°48' W 064°30'4 3.9 320 / 321015.0 -0.9-13.8 1.3
2018-May-16 05:00N 49°48' W 064°24'0 0.0 330 / 231014.4 -0.4-13.8
2018-May-16 04:00N 49°48' W 064°24'0 0.0 330 / 241012.7 0.7-11.4 2.5
2018-May-16 03:00N 49°48' W 064°24'0 0.0 330 / 231011.6 2.2-8.5 2.4
2018-May-16 02:00N 49°48' W 064°24'0 0.0 320 / 221009.4 3.5-8.2 2.6
2018-May-16 01:00N 49°48' W 064°24'8 7.7 310 / 281007.4 3.8-4.9 1.9
2018-May-16 00:00N 49°48' W 064°36'1313.1 320 / 271006.0 4.6-3.6 2.0
2018-May-15 23:00N 49°54' W 064°54'8 7.7 310 / 231005.1 5.4-2.2 2.3
2018-May-15 22:00N 49°54' W 065°06'1313.0 310 / 211004.0 6.9-1.7 2.5
2018-May-15 21:00N 50°00' W 065°24'1211.6 290 / 201003.1 7.8-0.7 2.7
2018-May-15 20:00N 50°00' W 065°42'10 9.8 280 / 171002.6 6.7 2.2 3.0
2018-May-15 19:00N 50°06' W 065°54'1716.5 280 / 131002.4 7.3 2.4 2.6
2018-May-15 18:00N 50°12' W 066°18'4 3.8 300 / 161002.4 10.2 1.1 2.8
2018-May-15 17:00N 50°12' W 066°24'   190 / 41002.1 6.0 0.7
Track history (hours):
 
Tides and Currents Weather Stations Pressure Air Temp Water Temp Dewpoint Dewpoint Depression Visibility Wind Speed Wind Dir Waves Ship Positions

Bella Desgagnes

Last reported at 2018-May-25 17:00 UTC. Time now 2018-May-25 18:20 UTC.
Position N 51°24' W 057°18'.

Length 97 m; draft 4.5 m.

Type: Passenger vessel. MMSI: 316023823.

Wind from 350 at 5 knots

Barometer 1008.3 mb
Air temperature 3.0 ° C
Dewpoint -4.3 ° C
Water temperature 1.4 ° C

Date/timePositionNaut miles runAvg speedWind from/ knotsBaromVisibWave heightAir tempDewpointWater temp
2018-May-25 17:00N 51°24' W 057°18'4 3.7 350 / 51008.3 3.0-4.3 1.4
2018-May-25 16:00N 51°24' W 057°12'0 0.0 090 / 31009.0 4.5-3.1
2018-May-25 15:00N 51°24' W 057°12'0 0.0 110 / 31009.6 4.5-0.8 0.8
2018-May-25 14:00N 51°24' W 057°12'4 3.7 130 / 51010.0 2.0-1.1 0.9
2018-May-25 13:00N 51°24' W 057°06'7 7.5 170 / 81010.1 1.9-1.3 0.8
2018-May-25 12:00N 51°24' W 057°18'10 9.6 200 / 101010.4 2.5-1.6 2.0
2018-May-25 11:00N 51°18' W 057°30'8 7.5 210 / 101010.5 2.1-1.5 2.0
2018-May-25 10:00N 51°18' W 057°42'10 9.6 200 / 101010.5 1.8-1.6 2.4
2018-May-25 09:00N 51°12' W 057°54'1111.3 220 / 111010.5 1.8-2.1 2.5
2018-May-25 08:00N 51°12' W 058°12'8 7.5 220 / 121010.7 1.8-1.8 2.4
2018-May-25 07:00N 51°12' W 058°24'8 7.5 230 / 161010.9 1.4-2.4 3.1
2018-May-25 06:00N 51°12' W 058°36'0 0.0 220 / 91011.5 1.2-1.3 3.7
2018-May-25 05:00N 51°12' W 058°36'0 0.0 220 / 121012.1 1.4-1.5 3.1
2018-May-25 04:00N 51°12' W 058°36'8 7.5 230 / 81012.6 1.1-1.2 3.5
2018-May-25 03:00N 51°12' W 058°24'1414.2 230 / 191013.3 1.1-1.5 2.3
2018-May-25 02:00N 51°00' W 058°36'1312.8 220 / 171013.8 1.6-1.2 2.3
2018-May-25 01:00N 50°54' W 058°54'6 6.0 210 / 141014.2 1.0-2.0 2.6
2018-May-25 00:00N 50°48' W 058°54'0 0.0 190 / 101013.8 0.8-1.9 2.6
2018-May-24 23:00N 50°48' W 058°54'10 9.7 210 / 151014.1 1.4-1.7 2.1
2018-May-24 22:00N 50°42' W 059°06'4 3.8 210 / 181013.8 2.0-1.4 2.7
2018-May-24 21:00N 50°42' W 059°12'0 0.0 180 / 141013.9 2.1-1.9 3.8
2018-May-24 20:00N 50°42' W 059°12'0 0.0 180 / 151014.2 1.9-2.9 3.5
2018-May-24 19:00N 50°42' W 059°12'6 6.0 180 / 131014.4 1.7-4.4 3.9
2018-May-24 18:00N 50°36' W 059°12'1312.9 150 / 131014.7 1.7-3.9 2.6
2018-May-24 17:00N 50°30' W 059°30'0 0.0 180 / 81015.2 2.6-3.4
2018-May-24 16:00N 50°30' W 059°30'0 0.0 020 / 71015.3 4.6-8.4 2.0
2018-May-24 15:00N 50°30' W 059°30'0 0.0 360 / 91015.5 3.8-8.5 2.5
2018-May-24 14:00N 50°30' W 059°30'6 6.0 350 / 141015.6 2.7-8.1 3.5
2018-May-24 13:00N 50°24' W 059°30'7 7.1 080 / 71016.1 0.3-2.8 2.1
2018-May-24 12:00N 50°18' W 059°36'10 9.7 030 / 141016.2 0.4-3.4 2.2
2018-May-24 11:00N 50°12' W 059°48'10 9.8 040 / 181015.8 0.5-3.6 2.1
2018-May-24 10:00N 50°06' W 060°00'1211.5 040 / 191015.0 0.3-2.7 1.8
2018-May-24 09:00N 50°06' W 060°18'8 7.7 060 / 191014.7 0.1-2.4 2.4
2018-May-24 08:00N 50°06' W 060°30'10 9.8 050 / 181014.2 0.1-1.8 2.4
2018-May-24 07:00N 50°12' W 060°42'0 0.0 010 / 71014.9 -0.1-3.3 1.7
2018-May-24 06:00N 50°12' W 060°42'0 0.0 360 / 81014.6 -0.3-3.6 1.8
2018-May-24 05:00N 50°12' W 060°42'0 0.0 010 / 91014.2 0.5-3.2 2.3
2018-May-24 04:00N 50°12' W 060°42'1716.5 010 / 121013.7 2.4-1.2 2.9
2018-May-24 03:00N 50°06' W 061°06'10 9.8 350 / 101014.4 2.4-1.9 3.3
2018-May-24 02:00N 50°12' W 061°18'0 0.0 350 / 31014.6 0.7-2.5 3.6
2018-May-24 01:00N 50°12' W 061°18'0 0.0 340 / 31014.4 2.2-1.5 3.7
2018-May-24 00:00N 50°12' W 061°18'10 9.8 240 / 31014.1 3.0-1.4 3.2
2018-May-23 23:00N 50°06' W 061°30'1515.4 290 / 51013.5 4.1-0.8 3.3
2018-May-23 22:00N 50°06' W 061°54'7 7.1 270 / 121013.0 4.3-0.0 3.4
2018-May-23 21:00N 50°12' W 061°48'4 3.8 240 / 91013.3 5.0 0.3 3.0
2018-May-23 20:00N 50°12' W 061°54'1211.5 210 / 101013.4 4.7 0.2 3.3
2018-May-23 19:00N 50°12' W 062°12'1211.5 260 / 81013.7 4.0-1.3 2.5
2018-May-23 18:00N 50°12' W 062°30'1716.5 250 / 51014.5 3.5-2.2 2.4
2018-May-23 17:00N 50°06' W 062°54'10 9.8 170 / 81014.7 3.0-2.7 2.5
2018-May-23 16:00N 50°12' W 063°06'1211.5 150 / 71015.2 2.4-3.6 1.9
2018-May-23 15:00N 50°12' W 063°24'8 7.7 150 / 81015.6 2.0-2.6 2.0
2018-May-23 14:00N 50°12' W 063°36'0 0.0 050 / 111015.7 2.6-5.0 2.1
2018-May-23 13:00N 50°12' W 063°36'0 0.0 050 / 81015.9 3.1-4.8 1.9
2018-May-23 12:00N 50°12' W 063°36'4 3.8 050 / 111015.6 2.1-5.0 1.9
2018-May-23 11:00N 50°12' W 063°42'10 9.8 040 / 151014.6 0.6-4.9 2.0
2018-May-23 10:00N 50°06' W 063°54'8 7.7 030 / 141013.9 0.6-4.3 2.4
2018-May-23 09:00N 50°06' W 064°06'1414.3 020 / 191013.6 1.0-3.6 1.9
2018-May-23 08:00N 49°54' W 064°18'8 7.7 020 / 231012.0 1.3-3.0 2.0
2018-May-23 07:00N 49°54' W 064°30'6 6.0 010 / 211012.4 2.1-0.1 2.3
2018-May-23 06:00N 49°48' W 064°30'4 3.9 010 / 161011.7 1.7 0.8 2.3
2018-May-23 05:00N 49°48' W 064°24'0 0.0 350 / 111011.4 2.3 1.7
2018-May-23 04:00N 49°48' W 064°24'0 0.0 340 / 131011.3 2.6 2.3 3.7
2018-May-23 03:00N 49°48' W 064°24'0 0.0 290 / 81011.2 3.2 2.6 3.9
2018-May-23 02:00N 49°48' W 064°24'4 3.9 270 / 51010.7 3.1 2.4 3.7
2018-May-23 01:00N 49°48' W 064°30'8 7.7 230 / 111010.7 3.1 2.6 2.6
2018-May-23 00:00N 49°48' W 064°42'10 9.8 250 / 21011.0 2.5 2.2 3.1
2018-May-22 23:00N 49°54' W 064°54'1211.6 080 / 121009.7 2.1 1.6 3.0
2018-May-22 22:00N 49°54' W 065°12'1211.6 060 / 181010.0 1.7 1.4 2.9
2018-May-22 21:00N 49°54' W 065°30'2019.5 040 / 171010.9 1.6 0.7 2.8
2018-May-22 20:00N 50°06' W 065°54'8 7.7 070 / 151010.9 1.4 0.1 3.1
2018-May-22 19:00N 50°06' W 066°06'10 9.8 080 / 91012.3 1.3-0.6 2.6
2018-May-22 18:00N 50°12' W 066°18'4 3.8 120 / 101013.9 1.4-1.2 2.6
2018-May-22 17:00N 50°12' W 066°24'0 0.0 100 / 71014.8 2.9-1.0
2018-May-22 16:00N 50°12' W 066°24'0 0.0 110 / 61016.0 4.4-3.9 1.7
2018-May-22 15:00N 50°12' W 066°24'0 0.0 170 / 41017.6 3.6-2.7 1.7
2018-May-22 14:00N 50°12' W 066°24'0 0.0 190 / 61018.1 2.5-1.3 2.4
2018-May-22 13:00N 50°12' W 066°24'2019.6 170 / 31018.7 2.1-2.1 2.4
2018-May-22 12:00N 49°54' W 066°36'7 7.1 180 / 11019.5 2.8-1.6 3.9
2018-May-22 11:00N 49°48' W 066°42'10 9.8 210 / 31020.4 2.8-0.6 3.9
2018-May-22 10:00N 49°42' W 066°54'1312.6 220 / 51020.4 3.3-0.4 3.8
2018-May-22 09:00N 49°30' W 067°00'10 9.8 240 / 61020.4 1.3-1.9 2.7
2018-May-22 08:00N 49°24' W 067°12'1312.6 280 / 51020.0 1.8-3.0 3.2
2018-May-22 07:00N 49°12' W 067°18'10 9.9 100 / 111019.4 4.3-1.0 4.4
2018-May-22 06:00N 49°06' W 067°30'1716.8 090 / 151019.1 5.4-1.2 6.4
2018-May-22 05:00N 48°54' W 067°48'1313.3 030 / 91018.9 8.3-5.9 6.6
2018-May-22 04:00N 48°48' W 068°06'1716.9 050 / 81019.1 8.4-2.7 6.1
2018-May-22 03:00N 48°36' W 068°24'7 7.2 030 / 81019.3 8.6-2.7 3.7
2018-May-22 02:00N 48°30' W 068°30'0 0.0 350 / 151019.2 9.3-3.5
2018-May-22 01:00N 48°30' W 068°30'0 0.0 350 / 81018.6 10.4-3.9
2018-May-22 00:00N 48°30' W 068°30'0 0.0 010 / 11017.8 10.5-2.7
2018-May-21 23:00N 48°30' W 068°30'0 0.0 290 / 31017.1 11.2-3.9
2018-May-21 22:00N 48°30' W 068°30'0 0.0 360 / 51016.5 10.4-2.7
2018-May-21 21:00N 48°30' W 068°30'0 0.0 010 / 81016.4 9.5-1.3
2018-May-21 20:00N 48°30' W 068°30'0 0.0 300 / 61016.0 9.2-1.3
2018-May-21 19:00N 48°30' W 068°30'0 0.0 300 / 41016.0 9.9-2.8
2018-May-21 18:00N 48°30' W 068°30'0 0.0 280 / 91015.4 9.4-3.0 4.6
2018-May-21 17:00N 48°30' W 068°30'0 0.0 290 / 181014.8 8.6-3.9 6.1
2018-May-21 16:00N 48°30' W 068°30'6 6.0 290 / 211013.6 8.7-3.9 5.4
2018-May-21 15:00N 48°36' W 068°30'1312.6 290 / 261011.3 8.7-3.3 3.4
2018-May-21 14:00N 48°48' W 068°24'1313.3 310 / 281010.9 9.5-1.8 4.3
2018-May-21 13:00N 48°54' W 068°06'1313.3 250 / 241010.5 6.9 2.1 5.8
2018-May-21 12:00N 49°00' W 067°48'10 9.9 260 / 241009.9 7.9 2.1 6.0
2018-May-21 11:00N 49°06' W 067°36'1716.8 260 / 251009.2 7.9 2.8 5.8
2018-May-21 10:00N 49°18' W 067°18'1414.3 270 / 191008.4 6.0 2.5 3.5
2018-May-21 09:00N 49°30' W 067°06'10 9.8 240 / 171008.0 8.5 0.3 3.8
2018-May-21 08:00N 49°36' W 066°54'1312.6 240 / 131007.4 7.3 0.5 3.6
2018-May-21 07:00N 49°48' W 066°48'10 9.8 230 / 221006.8 6.9 0.6 3.6
2018-May-21 06:00N 49°54' W 066°36'2019.6 220 / 181007.2 7.4 0.6 3.9
2018-May-21 05:00N 50°12' W 066°24'0 0.0 320 / 41008.0 6.6-1.2 2.4
2018-May-21 04:00N 50°12' W 066°24'10 9.8 260 / 101008.0 8.0-3.1 2.3
2018-May-21 03:00N 50°06' W 066°12'1515.4 280 / 121008.0 8.8-3.5 2.6
2018-May-21 02:00N 50°06' W 065°48'1716.7 280 / 191007.8 7.8-0.9 3.3
2018-May-21 01:00N 49°54' W 065°30'1515.5 300 / 231006.7 8.5-1.5 2.7
2018-May-21 00:00N 49°54' W 065°06'8 7.7 280 / 211005.7 6.1 0.1 2.6
2018-May-20 23:00N 49°54' W 064°54'1313.1 260 / 221004.8 5.5 1.2 2.7
2018-May-20 22:00N 49°48' W 064°36'8 7.7 270 / 251003.6 6.1 1.6 2.4
2018-May-20 21:00N 49°48' W 064°24'0 0.0 280 / 301002.9 5.9 1.9 2.4
2018-May-20 20:00N 49°48' W 064°24'0 0.0 290 / 271001.7 6.8 3.6 3.6
2018-May-20 19:00N 49°48' W 064°24'4 3.9 290 / 261000.8 4.2 3.7 4.2
2018-May-20 18:00N 49°48' W 064°30'7 7.1 270 / 251001.4 3.2 3.0 2.1
2018-May-20 17:00N 49°54' W 064°36'8 7.7 280 / 261000.1 2.7 2.6 2.5
2018-May-20 16:00N 49°54' W 064°24'1313.0 260 / 16999.9 2.5 2.4 2.3
2018-May-20 15:00N 50°00' W 064°06'10 9.8 270 / 10999.7 2.7 2.4 2.1
2018-May-20 14:00N 50°06' W 063°54'10 9.8 340 / 31000.0 3.2 2.9 1.7
2018-May-20 13:00N 50°12' W 063°42'4 3.8 110 / 41000.5 3.1 2.8 1.6
2018-May-20 12:00N 50°12' W 063°36'0 0.0 060 / 51001.9 3.7 3.3 1.8
2018-May-20 11:00N 50°12' W 063°36'4 3.8 050 / 61003.8 3.5 2.9 2.0
2018-May-20 10:00N 50°12' W 063°30'8 7.7 090 / 71005.3 3.1 1.6 1.5
2018-May-20 09:00N 50°12' W 063°18'10 9.8 100 / 161006.1 3.7 0.3 1.3
2018-May-20 08:00N 50°06' W 063°06'1211.5 100 / 161008.5 2.9 0.7 1.6
2018-May-20 07:00N 50°06' W 062°48'1313.0 110 / 171011.4 2.6 0.2 1.6
2018-May-20 06:00N 50°12' W 062°30'1211.5 110 / 161013.6 2.8-0.9 1.9
2018-May-20 05:00N 50°12' W 062°12'1211.5 110 / 151015.9 3.4-2.2 1.6
2018-May-20 04:00N 50°12' W 061°54'4 3.8 080 / 81017.8 4.8 0.5 3.8
2018-May-20 03:00N 50°12' W 061°48'1212.0 120 / 31019.9 5.4 1.0 4.3
2018-May-20 02:00N 50°00' W 061°48'1716.5 200 / 121020.3 5.0-2.6 1.3
2018-May-20 01:00N 50°06' W 061°24'7 7.1 210 / 161020.9 3.1-0.5 1.0
2018-May-20 00:00N 50°12' W 061°18'0 0.0 210 / 101021.6 4.3-0.9 1.2
2018-May-19 23:00N 50°12' W 061°18'1716.5 260 / 101021.3 6.3-2.0 1.5
2018-May-19 22:00N 50°06' W 060°54'10 9.8 260 / 171021.8 4.0-1.4 2.2
2018-May-19 21:00N 50°12' W 060°42'0 0.0 260 / 261021.5 5.3-1.5 3.5
2018-May-19 20:00N 50°12' W 060°42'0 0.0 270 / 261022.1 6.0-2.2 2.9
2018-May-19 19:00N 50°12' W 060°42'10 9.8 250 / 211022.6 4.9-2.5 1.4
2018-May-19 18:00N 50°06' W 060°30'8 7.7 260 / 251023.0 4.1-2.5 1.7
2018-May-19 17:00N 50°06' W 060°18'1211.5 250 / 231022.9 3.0-1.4 1.0
2018-May-19 16:00N 50°06' W 060°00'10 9.8 250 / 251023.5 2.9-1.7 1.2
2018-May-19 15:00N 50°12' W 059°48'10 9.7 250 / 231023.7 2.8-2.3 0.7
2018-May-19 14:00N 50°18' W 059°36'7 7.1 250 / 221024.1 2.8-2.8 1.1
2018-May-19 13:00N 50°24' W 059°30'6 6.0 270 / 141024.1 3.6-4.3 0.4
2018-May-19 12:00N 50°30' W 059°30'0 0.0 320 / 91024.3 4.5-6.8-0.2
2018-May-19 11:00N 50°30' W 059°30'1312.9 310 / 141024.1 3.2-6.0 0.4
2018-May-19 10:00N 50°36' W 059°12'6 6.0 260 / 171023.3 2.6-4.3 0.9
2018-May-19 09:00N 50°42' W 059°12'4 3.8 260 / 111023.3 1.1-5.0 0.8
2018-May-19 08:00N 50°42' W 059°06'10 9.7 260 / 181022.4 1.2-4.2 0.8
2018-May-19 07:00N 50°48' W 058°54'0 0.0 270 / 201021.9 2.5-5.7 0.9
2018-May-19 06:00N 50°48' W 058°54'7 7.1 270 / 51021.7 1.9-5.1 0.7
2018-May-19 05:00N 50°54' W 058°48'1312.8 270 / 201020.7 2.7-4.5 1.2
2018-May-19 04:00N 51°00' W 058°30'1312.6 260 / 201019.8 2.1-3.9 0.8
2018-May-19 03:00N 51°12' W 058°24'8 7.5 270 / 91019.6 2.3-4.8 0.8
2018-May-19 02:00N 51°12' W 058°36'4 3.8 250 / 101019.5 3.9-6.3 0.4
2018-May-19 01:00N 51°12' W 058°30'1111.3 270 / 131018.8 4.1-6.0 0.6
2018-May-19 00:00N 51°12' W 058°12'1616.2 250 / 101017.9 3.4-2.9 1.2
2018-May-18 23:00N 51°18' W 057°48'1515.0 260 / 181016.6 3.7-3.7 1.6
2018-May-18 22:00N 51°18' W 057°24'1312.7 220 / 221015.7 2.0-1.3 1.9
2018-May-18 21:00N 51°24' W 057°06'0 0.0 230 / 211016.2 2.4-1.6
2018-May-18 20:00N 51°24' W 057°06'0 0.0 230 / 181016.4 2.5-1.8 2.1
2018-May-18 19:00N 51°24' W 057°06'0 0.0 240 / 171016.5 3.3-4.0 2.2
2018-May-18 18:00N 51°24' W 057°06'7 7.5 250 / 231016.8 2.4-6.0 1.9
2018-May-18 17:00N 51°24' W 057°18'10 9.6 230 / 251016.9 1.4-4.8 1.9
2018-May-18 16:00N 51°18' W 057°30'8 7.5 220 / 271017.2 0.4-6.7 1.7
2018-May-18 15:00N 51°18' W 057°42'10 9.6 230 / 231017.8 0.2-7.3 1.4
2018-May-18 14:00N 51°12' W 057°54'8 7.5 250 / 191018.6 0.7-9.6 1.3
2018-May-18 13:00N 51°12' W 058°06'1111.3 250 / 161019.4 -0.1-10.7 0.6
2018-May-18 12:00N 51°12' W 058°24'8 7.5 270 / 151020.0 -0.3-11.0 0.2
2018-May-18 11:00N 51°12' W 058°36'0 0.0 280 / 111020.1 -1.1-11.5 0.9
2018-May-18 10:00N 51°12' W 058°36'8 7.5 290 / 111019.6 -2.5-11.0 1.1
2018-May-18 09:00N 51°12' W 058°24'2019.5 300 / 121019.1 -2.7-9.9 0.2
2018-May-18 08:00N 50°54' W 058°36'1111.4 340 / 101019.1 -2.0-9.7 0.9
2018-May-18 07:00N 50°54' W 058°54'6 6.0 310 / 101019.2 -2.7-9.6 0.4
2018-May-18 06:00N 50°48' W 058°54'0 0.0 310 / 41018.9 -1.6-9.7 0.6
2018-May-18 05:00N 50°48' W 058°54'7 7.1 280 / 111017.9 -0.9-9.4 0.8
2018-May-18 04:00N 50°42' W 059°00'8 7.6 290 / 71017.7 -0.3-6.1 0.7
2018-May-18 03:00N 50°42' W 059°12'0 0.0 270 / 51017.3 -0.2-9.9 0.3
2018-May-18 02:00N 50°42' W 059°12'6 6.0 300 / 61017.2 -0.2-8.6 0.4
2018-May-18 01:00N 50°36' W 059°12'10 9.7 320 / 101016.4 1.3-7.7 0.2
2018-May-18 00:00N 50°30' W 059°24'4 3.8 340 / 91016.0 2.1-7.8 1.0
2018-May-17 23:00N 50°30' W 059°30'0 0.0 350 / 111015.1 4.1-8.2 0.7
2018-May-17 22:00N 50°30' W 059°30'4 3.8 340 / 141014.1 5.0-8.5 0.6
2018-May-17 21:00N 50°30' W 059°24'1414.2 320 / 211012.6 4.2-6.5 0.7
2018-May-17 20:00N 50°18' W 059°36'7 7.1 320 / 171011.9 4.5-4.1 0.8
2018-May-17 19:00N 50°12' W 059°42'10 9.8 310 / 131011.6 3.5-2.4 0.7
2018-May-17 18:00N 50°06' W 059°54'1211.5 310 / 151011.1 3.1-1.7 1.0
2018-May-17 17:00N 50°06' W 060°12'8 7.7 320 / 151010.4 2.9-1.8 1.0
2018-May-17 16:00N 50°06' W 060°24'1313.0 330 / 181009.6 2.5-2.0 1.3
2018-May-17 15:00N 50°12' W 060°42'0 0.0 330 / 191008.7 2.6-0.9 1.4
2018-May-17 14:00N 50°12' W 060°42'0 0.0 340 / 171007.2 1.8 0.4
2018-May-17 13:00N 50°12' W 060°42'0 0.0 320 / 91006.6 1.5 1.1 1.5
2018-May-17 12:00N 50°12' W 060°42'0 0.0 240 / 171007.1 1.7 1.3 1.9
2018-May-17 11:00N 50°12' W 060°42'7 7.1 200 / 131008.0 1.6 1.1 2.3
2018-May-17 10:00N 50°06' W 060°48'1515.4 170 / 201008.1 1.4 0.9 1.0
2018-May-17 09:00N 50°06' W 061°12'7 7.1 170 / 181009.4 0.4-0.0 1.0
2018-May-17 08:00N 50°12' W 061°18'0 0.0 160 / 71012.0 1.3-1.3 1.1
2018-May-17 07:00N 50°12' W 061°18'10 9.8 150 / 121013.0 1.0-1.1 1.2
2018-May-17 06:00N 50°06' W 061°30'1211.5 170 / 231013.6 0.9-0.9 0.8
2018-May-17 05:00N 50°06' W 061°48'6 6.0 180 / 211014.9 0.5-1.3 1.4
2018-May-17 04:00N 50°12' W 061°48'0 0.0 180 / 131016.5 0.9-2.3 3.0
2018-May-17 03:00N 50°12' W 061°48'1211.5 200 / 171017.4 1.3-2.2 2.5
2018-May-17 02:00N 50°12' W 062°06'1211.5 200 / 201017.9 1.0-2.9 0.7
2018-May-17 01:00N 50°12' W 062°24'1716.5 200 / 161018.5 1.4-3.5 1.5
2018-May-17 00:00N 50°06' W 062°48'1211.5 230 / 171019.1 1.6-3.5 1.5
2018-May-16 23:00N 50°06' W 063°06'10 9.8 230 / 171019.3 1.4-4.6 1.1
2018-May-16 22:00N 50°12' W 063°18'1211.5 240 / 121019.3 0.4-5.7 1.1
2018-May-16 21:00N 50°12' W 063°36'0 0.0 270 / 161019.2 0.1-7.8 1.5
2018-May-16 20:00N 50°12' W 063°36'0 0.0 280 / 151019.7 -0.2-8.9
2018-May-16 19:00N 50°12' W 063°36'0 0.0 240 / 171019.7 -0.2-9.1
2018-May-16 18:00N 50°12' W 063°36'0 0.0 250 / 211020.5 -0.9-9.9
2018-May-16 17:00N 50°12' W 063°36'0 0.0 240 / 231020.2 -1.4-10.8
2018-May-16 16:00N 50°12' W 063°36'0 0.0 250 / 221020.5 -1.7-11.9
2018-May-16 15:00N 50°12' W 063°36'0 0.0 240 / 191020.6 -2.0-13.3
2018-May-16 14:00N 50°12' W 063°36'0 0.0 240 / 121020.3 -1.7-15.5 1.1
2018-May-16 13:00N 50°12' W 063°36'0 0.0 270 / 121020.6 -2.4-15.2 1.1
2018-May-16 12:00N 50°12' W 063°36'4 3.8 310 / 141020.7 -2.6-15.3 1.3
2018-May-16 11:00N 50°12' W 063°42'10 9.8 300 / 161020.7 -3.4-15.8 0.9
2018-May-16 10:00N 50°06' W 063°54'1313.0 310 / 201020.1 -3.2-15.3 1.1
2018-May-16 09:00N 50°00' W 064°12'17 8.3 310 / 231019.0 -3.0-14.6 1.8
2018-May-16 07:00N 49°54' W 064°36'7 7.1 330 / 291016.6 -1.9-14.4 1.8
2018-May-16 06:00N 49°48' W 064°30'4 3.9 320 / 321015.0 -0.9-13.8 1.3
2018-May-16 05:00N 49°48' W 064°24'0 0.0 330 / 231014.4 -0.4-13.8
2018-May-16 04:00N 49°48' W 064°24'0 0.0 330 / 241012.7 0.7-11.4 2.5
2018-May-16 03:00N 49°48' W 064°24'0 0.0 330 / 231011.6 2.2-8.5 2.4
2018-May-16 02:00N 49°48' W 064°24'0 0.0 320 / 221009.4 3.5-8.2 2.6
2018-May-16 01:00N 49°48' W 064°24'8 7.7 310 / 281007.4 3.8-4.9 1.9
2018-May-16 00:00N 49°48' W 064°36'1313.1 320 / 271006.0 4.6-3.6 2.0
2018-May-15 23:00N 49°54' W 064°54'8 7.7 310 / 231005.1 5.4-2.2 2.3
2018-May-15 22:00N 49°54' W 065°06'1313.0 310 / 211004.0 6.9-1.7 2.5
2018-May-15 21:00N 50°00' W 065°24'1211.6 290 / 201003.1 7.8-0.7 2.7
2018-May-15 20:00N 50°00' W 065°42'10 9.8 280 / 171002.6 6.7 2.2 3.0
2018-May-15 19:00N 50°06' W 065°54'1716.5 280 / 131002.4 7.3 2.4 2.6
2018-May-15 18:00N 50°12' W 066°18'4 3.8 300 / 161002.4 10.2 1.1 2.8
2018-May-15 17:00N 50°12' W 066°24'   190 / 41002.1 6.0 0.7

Dump ship's entire track history